Time;durP1;ratioP1;P1;durP2;ratioP2;P2;SDS_P1;SDS_P2;PMS_P1;PMS_P2;Temp;Humidity;BMP_temperature;BMP_pressure;BME280_temperature;BME280_humidity;BME280_pressure;Samples;Min_cycle;Max_cycle;Signal;HPM_P1;HPM_P2
2022/03/02 00:00:47;;;;;;;;;;;;;;;9.58;37.61;102758.34;5050751;28;19921;-68
2022/03/02 00:03:12;;;;;;;;;;;;;;;9.31;38.47;102762.91;5050514;28;20028;-67
2022/03/02 00:05:37;;;;;;;;;;;;;;;9.63;37.66;102762.06;5049834;28;19920;-67
2022/03/02 00:08:03;;;;;;;;;;;;;;;9.62;37.67;102755.00;5051282;28;20003;-68
2022/03/02 00:10:29;;;;;;;;;;;;;;;9.47;37.89;102756.25;5050069;28;20024;-69
2022/03/02 00:12:54;;;;;;;;;;;;;;;9.58;37.70;102761.03;5050492;28;19924;-69
2022/03/02 00:15:19;;;;;;;;;;;;;;;9.50;38.03;102758.56;5050284;28;19925;-68
2022/03/02 00:17:45;;;;;;;;;;;;;;;9.30;38.44;102755.84;5050062;28;19921;-67
2022/03/02 00:20:11;;;;;;;;;;;;;;;9.13;38.69;102759.19;5050360;28;19917;-66
2022/03/02 00:22:37;;;;;;;;;;;;;;;9.49;38.06;102757.72;5049651;28;19916;-67
2022/03/02 00:25:02;;;;;;;;;;;;;;;9.16;39.10;102756.03;5050053;28;20246;-67
2022/03/02 00:27:27;;;;;;;;;;;;;;;9.27;38.46;102758.94;5050424;28;19923;-67
2022/03/02 00:29:53;;;;;;;;;;;;;;;9.58;37.91;102758.34;5049689;28;19955;-68
2022/03/02 00:32:18;;;;;;;;;;;;;;;9.40;38.48;102752.69;5050272;28;19917;-68
2022/03/02 00:34:44;;;;;;;;;;;;;;;9.39;38.44;102754.56;5049727;28;19928;-70
2022/03/02 00:37:09;;;;;;;;;;;;;;;9.49;37.96;102751.47;5049878;28;19947;-68
2022/03/02 00:39:35;;;;;;;;;;;;;;;9.58;38.27;102744.78;5049997;28;20331;-67
2022/03/02 00:42:00;;;;;;;;;;;;;;;9.61;38.02;102741.63;5049642;28;20303;-68
2022/03/02 00:44:25;;;;;;;;;;;;;;;9.53;38.06;102748.13;5049663;28;19966;-68
2022/03/02 00:46:51;;;;;;;;;;;;;;;8.95;39.15;102741.69;5050631;28;19913;-68
2022/03/02 00:49:16;;;;;;;;;;;;;;;9.30;38.81;102744.16;5049536;28;20261;-68
2022/03/02 00:51:42;;;;;;;;;;;;;;;9.11;39.28;102736.88;5049034;28;19925;-68
2022/03/02 00:54:07;;;;;;;;;;;;;;;9.56;38.32;102745.00;5049355;28;19971;-66
2022/03/02 00:56:32;;;;;;;;;;;;;;;9.79;37.74;102734.50;5046818;28;19944;-68
2022/03/02 00:58:58;;;;;;;;;;;;;;;9.49;38.58;102732.50;5050245;28;20011;-67
2022/03/02 01:01:23;;;;;;;;;;;;;;;9.63;38.02;102724.13;5049335;28;19931;-68
2022/03/02 01:03:49;;;;;;;;;;;;;;;9.38;38.77;102725.81;5049690;28;19921;-69
2022/03/02 01:06:14;;;;;;;;;;;;;;;9.56;38.45;102727.91;5049592;28;19917;-68
2022/03/02 01:08:39;;;;;;;;;;;;;;;9.33;39.01;102735.63;5049116;28;19916;-67
2022/03/02 01:11:05;;;;;;;;;;;;;;;8.91;39.63;102728.75;5050119;28;20335;-67
2022/03/02 01:13:30;;;;;;;;;;;;;;;9.47;38.54;102729.16;5049724;28;19936;-68
2022/03/02 01:15:55;;;;;;;;;;;;;;;9.45;38.43;102731.28;5047822;28;19921;-67
2022/03/02 01:18:21;;;;;;;;;;;;;;;9.23;38.81;102724.38;5049936;28;19921;-68
2022/03/02 01:20:46;;;;;;;;;;;;;;;9.36;38.88;102727.91;5048549;28;20377;-69
2022/03/02 01:23:11;;;;;;;;;;;;;;;9.47;38.45;102719.16;5049853;28;19939;-68
2022/03/02 01:25:37;;;;;;;;;;;;;;;9.48;38.50;102725.41;5049437;28;20352;-68
2022/03/02 01:28:02;;;;;;;;;;;;;;;9.39;38.60;102716.63;5048945;28;19921;-68
2022/03/02 01:30:28;;;;;;;;;;;;;;;9.71;38.25;102714.94;5049522;28;19932;-67
2022/03/02 01:32:53;;;;;;;;;;;;;;;9.39;38.80;102711.22;5048952;28;20257;-68
2022/03/02 01:35:18;;;;;;;;;;;;;;;9.26;39.09;102711.25;5049217;28;19921;-68
2022/03/02 01:37:44;;;;;;;;;;;;;;;9.35;38.85;102715.41;5049391;28;19921;-67
2022/03/02 01:40:10;;;;;;;;;;;;;;;9.12;39.33;102708.75;5048909;28;19920;-68
2022/03/02 01:42:36;;;;;;;;;;;;;;;9.13;39.26;102708.56;5048688;28;19925;-68
2022/03/02 01:45:02;;;;;;;;;;;;;;;9.22;39.41;102707.28;5048271;28;20011;-68
2022/03/02 01:47:28;;;;;;;;;;;;;;;9.25;39.19;102696.03;5047650;28;19916;-68
2022/03/02 01:49:53;;;;;;;;;;;;;;;8.84;40.06;102706.25;5048379;28;19943;-68
2022/03/02 01:52:18;;;;;;;;;;;;;;;9.18;39.05;102705.22;5046809;28;20538;-69
2022/03/02 01:54:44;;;;;;;;;;;;;;;9.01;39.39;102702.13;5047158;28;19978;-68
2022/03/02 01:57:09;;;;;;;;;;;;;;;9.33;38.96;102695.81;5047790;28;19992;-68
2022/03/02 01:59:35;;;;;;;;;;;;;;;9.17;39.90;102701.69;5047091;28;19948;-68
2022/03/02 02:02:02;;;;;;;;;;;;;;;9.31;39.18;102686.25;5048079;28;19917;-68
2022/03/02 02:04:27;;;;;;;;;;;;;;;9.31;38.85;102683.53;5047832;28;20508;-69
2022/03/02 02:06:53;;;;;;;;;;;;;;;9.23;39.24;102679.19;5047139;28;19920;-67
2022/03/02 02:09:18;;;;;;;;;;;;;;;9.23;39.29;102681.06;5048535;28;20396;-67
2022/03/02 02:11:44;;;;;;;;;;;;;;;9.12;39.68;102681.69;5052136;28;20568;-67
2022/03/02 02:14:09;;;;;;;;;;;;;;;9.28;38.99;102679.38;5052788;28;20012;-68
2022/03/02 02:16:34;;;;;;;;;;;;;;;9.24;38.80;102680.00;5053051;28;20457;-69
2022/03/02 02:19:00;;;;;;;;;;;;;;;9.39;38.63;102680.59;5034564;28;19936;-68
2022/03/02 02:21:27;;;;;;;;;;;;;;;9.22;39.02;102673.97;5052153;28;19921;-68
2022/03/02 02:23:52;;;;;;;;;;;;;;;8.92;39.42;102677.13;5052729;28;19947;-68
2022/03/02 02:26:21;;;;;;;;;;;;;;;8.97;39.47;102673.78;5052674;28;19921;-68
2022/03/02 02:28:46;;;;;;;;;;;;;;;9.01;39.38;102666.06;5052504;28;20301;-67
2022/03/02 02:31:12;;;;;;;;;;;;;;;9.11;39.51;102661.91;5052517;28;19928;-67
2022/03/02 02:33:38;;;;;;;;;;;;;;;8.84;40.00;102665.66;5051992;28;19924;-67
2022/03/02 02:36:03;;;;;;;;;;;;;;;9.11;39.32;102663.78;5052573;28;19924;-67
2022/03/02 02:38:29;;;;;;;;;;;;;;;8.59;40.43;102665.47;5052128;28;19921;-68
2022/03/02 02:40:54;;;;;;;;;;;;;;;9.00;39.62;102659.81;5052120;28;19956;-66
2022/03/02 02:43:23;;;;;;;;;;;;;;;9.12;39.32;102665.44;5051334;28;19928;-69
2022/03/02 02:45:49;;;;;;;;;;;;;;;9.02;39.56;102665.06;5033982;28;19927;-68
2022/03/02 02:48:14;;;;;;;;;;;;;;;9.01;39.70;102664.22;5051615;28;19925;-67
2022/03/02 02:50:40;;;;;;;;;;;;;;;8.92;39.73;102660.88;5051681;28;19928;-69
2022/03/02 02:53:07;;;;;;;;;;;;;;;9.09;39.40;102665.88;5051589;28;19935;-67
2022/03/02 02:55:32;;;;;;;;;;;;;;;8.99;39.42;102660.88;5051560;28;19925;-67
2022/03/02 02:57:58;;;;;;;;;;;;;;;8.81;39.79;102661.53;5052020;28;19917;-68
2022/03/02 03:00:26;;;;;;;;;;;;;;;8.91;39.61;102653.81;5052123;28;19924;-68
2022/03/02 03:02:52;;;;;;;;;;;;;;;8.86;39.55;102655.44;5051924;28;20399;-67
2022/03/02 03:05:19;;;;;;;;;;;;;;;8.85;39.78;102648.38;5052290;28;20312;-67
2022/03/02 03:07:45;;;;;;;;;;;;;;;8.82;39.80;102646.09;5051378;28;20491;-68
2022/03/02 03:10:11;;;;;;;;;;;;;;;8.75;39.85;102640.69;5049778;28;19932;-68
2022/03/02 03:12:36;;;;;;;;;;;;;;;8.49;40.24;102642.53;5051348;28;20395;-67
2022/03/02 03:15:06;;;;;;;;;;;;;;;8.52;40.06;102640.28;5032544;28;20011;-68
2022/03/02 03:17:31;;;;;;;;;;;;;;;8.32;41.03;102641.28;5051341;28;19916;-68
2022/03/02 03:19:57;;;;;;;;;;;;;;;8.32;40.47;102644.00;5051359;28;19988;-67
2022/03/02 03:22:22;;;;;;;;;;;;;;;8.28;40.75;102643.56;5050015;28;19917;-67
2022/03/02 03:24:47;;;;;;;;;;;;;;;8.20;41.09;102641.03;5051402;28;19920;-67
2022/03/02 03:27:12;;;;;;;;;;;;;;;8.09;41.35;102638.94;5050747;28;19978;-67
2022/03/02 03:29:38;;;;;;;;;;;;;;;7.99;41.47;102642.00;5051170;28;20512;-66
2022/03/02 03:32:03;;;;;;;;;;;;;;;8.04;41.47;102634.13;5051229;28;20529;-69
2022/03/02 03:34:29;;;;;;;;;;;;;;;8.22;40.83;102630.84;5050767;28;19967;-67
2022/03/02 03:36:54;;;;;;;;;;;;;;;8.13;41.36;102627.50;5051308;28;20507;-67
2022/03/02 03:39:20;;;;;;;;;;;;;;;8.04;41.65;102633.28;5050593;28;19924;-68
2022/03/02 03:41:45;;;;;;;;;;;;;;;8.07;41.51;102630.19;5050598;28;20296;-69
2022/03/02 03:44:10;;;;;;;;;;;;;;;8.16;41.44;102617.31;5051596;28;19916;-67
2022/03/02 03:46:35;;;;;;;;;;;;;;;8.08;41.46;102624.59;5050911;28;19921;-68
2022/03/02 03:49:02;;;;;;;;;;;;;;;8.21;41.38;102629.16;5050911;28;19970;-67
2022/03/02 03:51:27;;;;;;;;;;;;;;;8.34;41.51;102626.53;5050485;28;19927;-67
2022/03/02 03:53:52;;;;;;;;;;;;;;;8.25;41.73;102626.91;5050670;28;19925;-68
2022/03/02 03:56:18;;;;;;;;;;;;;;;8.25;41.90;102629.59;5051426;28;19921;-68
2022/03/02 03:58:43;;;;;;;;;;;;;;;8.17;41.74;102632.50;5049059;28;19933;-67
2022/03/02 04:01:08;;;;;;;;;;;;;;;8.29;41.95;102636.31;5050560;28;19924;-70
2022/03/02 04:03:36;;;;;;;;;;;;;;;8.53;41.08;102630.28;5050931;28;19921;-68
2022/03/02 04:06:02;;;;;;;;;;;;;;;8.55;40.65;102631.75;5050291;28;19921;-67
2022/03/02 04:08:27;;;;;;;;;;;;;;;8.55;41.11;102623.63;5050376;28;19917;-68
2022/03/02 04:10:53;;;;;;;;;;;;;;;8.56;40.84;102627.16;5051081;28;19927;-69
2022/03/02 04:13:18;;;;;;;;;;;;;;;8.58;40.93;102612.41;5050171;28;19921;-69
2022/03/02 04:15:43;;;;;;;;;;;;;;;8.70;40.89;102612.59;5050761;28;19920;-68
2022/03/02 04:18:09;;;;;;;;;;;;;;;8.52;41.06;102615.09;5050026;28;20412;-68
2022/03/02 04:20:35;;;;;;;;;;;;;;;8.59;41.04;102611.34;5049498;28;19917;-68
2022/03/02 04:23:00;;;;;;;;;;;;;;;8.60;41.21;102610.28;5050826;28;19916;-68
2022/03/02 04:25:25;;;;;;;;;;;;;;;8.67;41.00;102615.72;5049839;28;19916;-68
2022/03/02 04:27:50;;;;;;;;;;;;;;;8.44;41.28;102602.63;5050017;28;19921;-66
2022/03/02 04:30:16;;;;;;;;;;;;;;;8.65;41.20;102604.25;5050005;28;20596;-68
2022/03/02 04:32:41;;;;;;;;;;;;;;;8.63;41.47;102601.78;5049046;28;19920;-68
2022/03/02 04:35:08;;;;;;;;;;;;;;;8.66;41.59;102604.03;5050895;28;19924;-67
2022/03/02 04:37:33;;;;;;;;;;;;;;;8.63;41.47;102601.78;5049807;28;20258;-68
2022/03/02 04:39:58;;;;;;;;;;;;;;;8.63;41.36;102598.22;5049325;28;19921;-68
2022/03/02 04:42:24;;;;;;;;;;;;;;;8.55;41.58;102599.28;5031757;28;20576;-68
2022/03/02 04:44:49;;;;;;;;;;;;;;;8.49;41.80;102596.56;5049399;28;19924;-68
2022/03/02 04:47:14;;;;;;;;;;;;;;;8.55;41.75;102591.16;5050366;28;19913;-69
2022/03/02 04:49:39;;;;;;;;;;;;;;;8.70;41.19;102594.47;5049776;28;20015;-67
2022/03/02 04:52:05;;;;;;;;;;;;;;;8.68;41.44;102588.44;5048974;28;19920;-68
2022/03/02 04:57:14;;;;;;;;;;;;;;;8.57;41.13;102589.06;5049472;28;19932;-68
2022/03/02 04:59:40;;;;;;;;;;;;;;;8.54;41.49;102588.66;5049741;28;19920;-68
2022/03/02 05:02:05;;;;;;;;;;;;;;;8.52;41.13;102588.88;5048606;28;19912;-67
2022/03/02 05:04:30;;;;;;;;;;;;;;;8.22;42.32;102586.75;5049467;28;19982;-66
2022/03/02 05:06:56;;;;;;;;;;;;;;;8.37;42.04;102579.31;5048771;28;19928;-67
2022/03/02 05:09:21;;;;;;;;;;;;;;;8.05;42.45;102572.81;5049143;28;19928;-67
2022/03/02 05:11:46;;;;;;;;;;;;;;;8.28;41.95;102581.38;5049458;28;19925;-68
2022/03/02 05:14:11;;;;;;;;;;;;;;;8.23;42.13;102574.91;5049458;28;20368;-67
2022/03/02 05:16:37;;;;;;;;;;;;;;;8.35;41.91;102575.97;5049099;28;19924;-69
2022/03/02 05:19:03;;;;;;;;;;;;;;;8.11;42.49;102572.78;5049233;28;19967;-68
2022/03/02 05:21:28;;;;;;;;;;;;;;;7.72;43.56;102577.31;5048238;28;20388;-68
2022/03/02 05:23:53;;;;;;;;;;;;;;;8.08;42.82;102578.63;5049270;28;19916;-68
2022/03/02 05:26:18;;;;;;;;;;;;;;;7.78;43.21;102577.31;5049752;28;20435;-68
2022/03/02 05:28:44;;;;;;;;;;;;;;;7.84;43.54;102568.38;5049079;28;20751;-68
2022/03/02 05:31:09;;;;;;;;;;;;;;;8.08;42.89;102570.50;5045745;28;20012;-68
2022/03/02 05:33:34;;;;;;;;;;;;;;;8.03;42.85;102572.16;5048981;28;19948;-68
2022/03/02 05:35:59;;;;;;;;;;;;;;;8.18;42.22;102569.25;5048747;28;19956;-67
2022/03/02 05:38:25;;;;;;;;;;;;;;;8.28;42.15;102570.56;5048852;28;20529;-68
2022/03/02 05:40:50;;;;;;;;;;;;;;;8.21;42.13;102571.56;5048977;28;20373;-69
2022/03/02 05:43:15;;;;;;;;;;;;;;;8.30;42.26;102568.47;5048958;28;19948;-69
2022/03/02 05:45:40;;;;;;;;;;;;;;;7.67;43.21;102568.97;5050845;28;19964;-69
2022/03/02 05:48:06;;;;;;;;;;;;;;;7.93;42.93;102574.44;5053266;28;19916;-67
2022/03/02 05:50:31;;;;;;;;;;;;;;;7.84;43.27;102575.66;5052670;28;19921;-67
2022/03/02 05:52:57;;;;;;;;;;;;;;;7.92;42.60;102565.50;5052336;28;19917;-67
2022/03/02 05:55:22;;;;;;;;;;;;;;;8.12;42.23;102570.94;5052947;28;19932;-68
2022/03/02 05:57:47;;;;;;;;;;;;;;;7.78;42.76;102571.06;5052668;28;20011;-68
2022/03/02 06:00:13;;;;;;;;;;;;;;;7.89;42.96;102575.88;5051030;28;19946;-68
2022/03/02 06:02:39;;;;;;;;;;;;;;;7.54;43.30;102575.13;5052495;28;20616;-68
2022/03/02 06:05:04;;;;;;;;;;;;;;;7.68;43.03;102578.75;5052592;28;19920;-67
2022/03/02 06:07:30;;;;;;;;;;;;;;;7.93;42.37;102585.25;5052579;28;20285;-68
2022/03/02 06:09:55;;;;;;;;;;;;;;;7.75;42.92;102575.03;5052617;28;19920;-68
2022/03/02 06:12:20;;;;;;;;;;;;;;;7.35;43.94;102588.56;5051904;28;19943;-68
2022/03/02 06:14:46;;;;;;;;;;;;;;;7.55;43.26;102587.63;5052471;28;19925;-69
2022/03/02 06:17:11;;;;;;;;;;;;;;;7.61;43.23;102580.56;5052552;28;19924;-69
2022/03/02 06:19:37;;;;;;;;;;;;;;;7.57;43.17;102590.97;5052111;28;19917;-67
2022/03/02 06:22:03;;;;;;;;;;;;;;;7.11;44.11;102590.72;5051908;28;19917;-68
2022/03/02 06:24:29;;;;;;;;;;;;;;;7.40;43.37;102586.09;5051986;28;20006;-68
2022/03/02 06:26:54;;;;;;;;;;;;;;;7.11;44.18;102593.44;5052005;28;19944;-68
2022/03/02 06:29:19;;;;;;;;;;;;;;;7.03;44.02;102587.34;5052568;28;19935;-70
2022/03/02 06:31:45;;;;;;;;;;;;;;;6.91;44.23;102587.03;5051449;28;20396;-67
2022/03/02 06:34:10;;;;;;;;;;;;;;;7.11;43.74;102589.88;5051993;28;20365;-68
2022/03/02 06:36:35;;;;;;;;;;;;;;;7.12;43.71;102592.41;5051462;28;19921;-68
2022/03/02 06:39:01;;;;;;;;;;;;;;;7.11;43.29;102595.28;5051411;28;19922;-67
2022/03/02 06:41:33;;;;;;;;;;;;;;;6.91;44.03;102591.63;5051557;28;19943;-68
2022/03/02 06:44:04;;;;;;;;;;;;;;;6.99;43.75;102592.28;5051524;28;19916;-68
2022/03/02 06:46:48;;;;;;;;;;;;;;;6.96;43.64;102598.09;5051627;28;20305;-68
2022/03/02 06:49:25;;;;;;;;;;;;;;;6.79;44.40;102593.19;5050717;28;19956;-68
2022/03/02 06:51:54;;;;;;;;;;;;;;;6.86;44.08;102600.31;5050534;28;20404;-68
2022/03/02 06:54:23;;;;;;;;;;;;;;;6.83;44.22;102598.00;5050472;28;20013;-68
2022/03/02 06:56:51;;;;;;;;;;;;;;;6.66;44.59;102598.50;5049908;28;19955;-68
2022/03/02 06:59:24;;;;;;;;;;;;;;;6.48;44.61;102596.25;5051597;28;20030;-68
2022/03/02 07:01:51;;;;;;;;;;;;;;;6.49;45.05;102597.09;5046463;28;19921;-67
2022/03/02 07:04:17;;;;;;;;;;;;;;;6.66;44.91;102606.59;5032711;28;20051;-67
2022/03/02 07:06:43;;;;;;;;;;;;;;;6.75;44.07;102602.72;5044673;28;20339;-68
2022/03/02 07:09:09;;;;;;;;;;;;;;;6.53;44.76;102606.47;5045098;28;19924;-67
2022/03/02 07:11:35;;;;;;;;;;;;;;;6.37;45.00;102610.28;5049887;28;20280;-68
2022/03/02 07:14:02;;;;;;;;;;;;;;;6.56;44.51;102615.00;5052175;28;19921;-68
2022/03/02 07:16:28;;;;;;;;;;;;;;;6.35;45.17;102610.47;5051056;28;19974;-69
2022/03/02 07:18:54;;;;;;;;;;;;;;;6.54;44.45;102602.75;5050951;28;19917;-68
2022/03/02 07:21:22;;;;;;;;;;;;;;;6.51;44.55;102619.31;5051042;28;20534;-69
2022/03/02 07:23:54;;;;;;;;;;;;;;;6.50;44.79;102609.56;5041746;28;19948;-69
2022/03/02 07:26:21;;;;;;;;;;;;;;;6.35;45.06;102607.78;5042001;28;20319;-72
2022/03/02 07:28:47;;;;;;;;;;;;;;;6.45;44.90;102612.00;5047287;28;20486;-68
2022/03/02 07:31:12;;;;;;;;;;;;;;;6.38;45.11;102618.16;5046827;28;19931;-69
2022/03/02 07:33:42;;;;;;;;;;;;;;;6.33;45.19;102617.09;5049863;28;19920;-67
2022/03/02 07:36:08;;;;;;;;;;;;;;;6.61;44.35;102617.13;5049621;28;20012;-69
2022/03/02 07:38:33;;;;;;;;;;;;;;;6.32;45.30;102618.94;5045324;28;19960;-68
2022/03/02 07:40:59;;;;;;;;;;;;;;;6.36;45.03;102624.81;5049505;28;19959;-69
2022/03/02 07:43:24;;;;;;;;;;;;;;;6.10;45.76;102633.47;5045810;28;19963;-69
2022/03/02 07:45:50;;;;;;;;;;;;;;;6.04;46.19;102634.22;5044724;28;19921;-69
2022/03/02 07:48:15;;;;;;;;;;;;;;;5.70;47.17;102636.72;5048917;28;19956;-68
2022/03/02 07:50:41;;;;;;;;;;;;;;;6.07;46.51;102635.69;5046051;28;19920;-69
2022/03/02 07:53:07;;;;;;;;;;;;;;;6.28;45.31;102630.31;5050435;28;19908;-68
2022/03/02 07:55:33;;;;;;;;;;;;;;;6.50;44.98;102631.16;5046111;28;19940;-70
2022/03/02 07:58:03;;;;;;;;;;;;;;;6.28;45.16;102630.31;5049296;28;19925;-68
2022/03/02 08:00:28;;;;;;;;;;;;;;;6.05;46.09;102625.09;5049198;28;20050;-68
2022/03/02 08:02:57;;;;;;;;;;;;;;;6.09;46.19;102629.09;5049829;28;20003;-68
2022/03/02 08:05:22;;;;;;;;;;;;;;;6.53;45.39;102626.19;5041462;28;19917;-67
2022/03/02 08:07:49;;;;;;;;;;;;;;;5.68;47.47;102628.00;5041461;28;19971;-68
2022/03/02 08:10:15;;;;;;;;;;;;;;;6.32;46.14;102632.41;5039696;28;20000;-69
2022/03/02 08:12:41;;;;;;;;;;;;;;;6.73;45.10;102629.91;5043099;28;19928;-70
2022/03/02 08:15:07;;;;;;;;;;;;;;;6.98;44.52;102624.88;5043375;28;19929;-69
2022/03/02 08:17:32;;;;;;;;;;;;;;;6.93;45.03;102616.56;5065247;28;19954;-67
2022/03/02 08:19:57;;;;;;;;;;;;;;;6.90;44.58;102625.88;5053205;28;20011;-70
2022/03/02 08:22:23;;;;;;;;;;;;;;;7.05;44.71;102626.59;5048731;28;19929;-68
2022/03/02 08:25:03;;;;;;;;;;;;;;;6.87;45.06;102628.97;5040689;28;19917;-68
2022/03/02 08:27:29;;;;;;;;;;;;;;;6.87;45.12;102626.28;5049182;28;19952;-69
2022/03/02 08:29:56;;;;;;;;;;;;;;;6.57;45.96;102630.16;5043409;28;19931;-69
2022/03/02 08:32:22;;;;;;;;;;;;;;;7.74;43.38;102621.97;5049596;28;19917;-67
2022/03/02 08:34:49;;;;;;;;;;;;;;;7.51;43.57;102631.44;5046744;28;19992;-68
2022/03/02 08:37:17;;;;;;;;;;;;;;;7.71;43.22;102625.09;5063009;28;19922;-68
2022/03/02 08:39:42;;;;;;;;;;;;;;;8.02;42.76;102621.84;5054040;28;20024;-67
2022/03/02 08:42:08;;;;;;;;;;;;;;;8.08;42.19;102612.94;5047773;28;19932;-68
2022/03/02 08:44:33;;;;;;;;;;;;;;;8.46;41.63;102605.09;5048113;28;19917;-68
2022/03/02 08:46:58;;;;;;;;;;;;;;;8.59;40.91;102608.63;5048440;28;19922;-67
2022/03/02 08:49:24;;;;;;;;;;;;;;;8.45;41.37;102603.41;5049121;28;19921;-69
2022/03/02 08:51:50;;;;;;;;;;;;;;;8.19;41.90;102601.50;5048556;28;19936;-68
2022/03/02 08:54:17;;;;;;;;;;;;;;;8.87;41.07;102597.59;5049673;28;19936;-67
2022/03/02 08:56:45;;;;;;;;;;;;;;;9.01;40.44;102601.09;5047788;28;22740;-69
2022/03/02 08:59:15;;;;;;;;;;;;;;;8.19;41.54;102590.69;5047577;28;19967;-68
2022/03/02 09:01:43;;;;;;;;;;;;;;;8.56;40.97;102592.00;5046624;28;19921;-69
2022/03/02 09:04:12;;;;;;;;;;;;;;;8.13;41.45;102591.53;5047501;28;20019;-67
2022/03/02 09:06:38;;;;;;;;;;;;;;;8.31;40.77;102593.66;5046318;28;19936;-66
2022/03/02 09:09:05;;;;;;;;;;;;;;;9.38;39.11;102593.06;5047038;28;19913;-67
2022/03/02 09:11:30;;;;;;;;;;;;;;;9.16;39.27;102586.28;5046848;28;19921;-66
2022/03/02 09:13:55;;;;;;;;;;;;;;;8.60;39.93;102583.22;5047768;28;20058;-67
2022/03/02 09:16:21;;;;;;;;;;;;;;;9.39;38.95;102592.00;5050866;28;19923;-67
2022/03/02 09:18:47;;;;;;;;;;;;;;;9.60;38.61;102582.81;5051154;28;19998;-67
2022/03/02 09:21:13;;;;;;;;;;;;;;;9.60;38.19;102588.22;5047616;28;19948;-68
2022/03/02 09:23:40;;;;;;;;;;;;;;;9.65;37.46;102589.22;5048314;28;19963;-69
2022/03/02 09:26:07;;;;;;;;;;;;;;;8.90;38.57;102591.72;5048782;28;19917;-67
2022/03/02 09:28:34;;;;;;;;;;;;;;;9.49;37.92;102591.59;5047893;28;19934;-68
2022/03/02 09:31:03;;;;;;;;;;;;;;;9.61;37.77;102590.72;5047735;28;19917;-67
2022/03/02 09:33:29;;;;;;;;;;;;;;;10.12;36.82;102593.34;5048167;28;19924;-68
2022/03/02 09:35:56;;;;;;;;;;;;;;;10.10;35.58;102583.75;5046842;28;20495;-69
2022/03/02 09:38:22;;;;;;;;;;;;;;;9.62;37.06;102589.69;5048460;28;19959;-66
2022/03/02 09:40:49;;;;;;;;;;;;;;;10.42;35.69;102582.69;5048147;28;19996;-66
2022/03/02 09:43:16;;;;;;;;;;;;;;;10.62;34.72;102581.50;5047687;28;20190;-67
2022/03/02 09:45:42;;;;;;;;;;;;;;;10.34;34.79;102581.06;5047562;28;19944;-67
2022/03/02 09:48:12;;;;;;;;;;;;;;;10.04;35.14;102585.47;5048489;28;19964;-66
2022/03/02 09:50:38;;;;;;;;;;;;;;;10.87;34.69;102576.03;5047792;28;19920;-68
2022/03/02 09:53:08;;;;;;;;;;;;;;;10.53;33.94;102571.97;5048105;28;20011;-67
2022/03/02 09:55:35;;;;;;;;;;;;;;;10.92;33.69;102567.22;5055698;28;20300;-67
2022/03/02 09:58:00;;;;;;;;;;;;;;;9.89;35.18;102571.38;5048322;28;20412;-67
2022/03/02 10:00:26;;;;;;;;;;;;;;;10.81;34.83;102570.66;5048132;28;19966;-67
2022/03/02 10:02:59;;;;;;;;;;;;;;;11.28;33.27;102564.47;5058404;28;20328;-69
2022/03/02 10:05:26;;;;;;;;;;;;;;;11.00;34.46;102567.72;5061287;28;19924;-67
2022/03/02 10:07:51;;;;;;;;;;;;;;;11.75;33.48;102565.59;5047882;28;20335;-67
2022/03/02 10:10:22;;;;;;;;;;;;;;;12.27;32.34;102559.34;5047381;28;19995;-67
2022/03/02 10:12:47;;;;;;;;;;;;;;;12.46;30.95;102555.50;5048443;28;19990;-68
2022/03/02 10:15:13;;;;;;;;;;;;;;;12.87;30.15;102557.28;5048017;28;19925;-67
2022/03/02 10:17:40;;;;;;;;;;;;;;;11.77;29.03;102552.59;5048183;28;19956;-68
2022/03/02 10:20:13;;;;;;;;;;;;;;;10.98;28.67;102552.75;5048934;28;19924;-67
2022/03/02 10:22:46;;;;;;;;;;;;;;;10.77;27.90;102554.00;5048228;28;19932;-67
2022/03/02 10:25:12;;;;;;;;;;;;;;;11.87;28.74;102552.84;5037178;28;19921;-67
2022/03/02 10:27:57;;;;;;;;;;;;;;;12.73;26.32;102545.78;5028108;28;19922;-68
2022/03/02 10:30:22;;;;;;;;;;;;;;;12.64;25.64;102544.50;5039488;28;20610;-67
2022/03/02 10:32:49;;;;;;;;;;;;;;;11.11;27.25;102547.97;5051934;28;19921;-68
2022/03/02 10:35:21;;;;;;;;;;;;;;;10.56;26.65;102543.56;5052506;28;19917;-67
2022/03/02 10:37:52;;;;;;;;;;;;;;;11.03;27.51;102542.84;5051547;28;20020;-68
2022/03/02 10:40:23;;;;;;;;;;;;;;;12.01;26.47;102540.72;5051516;28;19990;-68
2022/03/02 10:42:48;;;;;;;;;;;;;;;11.34;25.96;102544.56;5051354;28;19921;-68
2022/03/02 10:45:14;;;;;;;;;;;;;;;11.11;26.02;102534.41;5045198;28;20004;-67
2022/03/02 10:47:46;;;;;;;;;;;;;;;11.14;26.06;102536.66;5051380;28;19958;-67
2022/03/02 10:50:11;;;;;;;;;;;;;;;10.81;26.36;102529.91;5049771;28;19917;-67
2022/03/02 10:52:38;;;;;;;;;;;;;;;11.34;26.46;102530.97;5049957;28;20027;-67
2022/03/02 10:55:05;;;;;;;;;;;;;;;11.29;26.37;102528.13;5050943;28;19925;-66
2022/03/02 10:57:32;;;;;;;;;;;;;;;11.94;26.08;102523.69;5034410;28;20012;-66
2022/03/02 11:00:02;;;;;;;;;;;;;;;12.08;25.64;102525.94;5031174;28;19921;-67
2022/03/02 11:02:28;;;;;;;;;;;;;;;11.99;25.39;102523.78;5030391;28;19921;-67
2022/03/02 11:04:54;;;;;;;;;;;;;;;12.09;24.97;102521.34;5030140;28;20047;-67
2022/03/02 11:07:20;;;;;;;;;;;;;;;12.78;24.53;102526.00;5030427;28;19928;-65
2022/03/02 11:09:48;;;;;;;;;;;;;;;12.59;24.31;102519.03;5029908;28;20457;-68
2022/03/02 11:12:14;;;;;;;;;;;;;;;12.45;24.90;102512.16;5029841;28;19921;-68
2022/03/02 11:14:54;;;;;;;;;;;;;;;12.06;24.74;102510.94;5045106;28;20250;-68
2022/03/02 11:17:19;;;;;;;;;;;;;;;11.69;24.19;102506.69;5030344;28;19953;-66
2022/03/02 11:19:45;;;;;;;;;;;;;;;11.45;23.97;102508.47;5030092;28;19957;-68
2022/03/02 11:22:16;;;;;;;;;;;;;;;11.14;25.16;102506.75;5012484;28;20365;-67
2022/03/02 11:24:41;;;;;;;;;;;;;;;11.79;24.08;102505.06;5009891;28;19944;-69
2022/03/02 11:27:07;;;;;;;;;;;;;;;11.40;23.98;102495.56;5010692;28;19921;-68
2022/03/02 11:29:32;;;;;;;;;;;;;;;11.41;24.47;102491.75;5029108;28;20002;-68
2022/03/02 11:31:57;;;;;;;;;;;;;;;11.95;25.31;102493.50;5031185;28;20004;-67
2022/03/02 11:34:27;;;;;;;;;;;;;;;12.25;24.42;102497.00;5030818;28;20019;-66
2022/03/02 11:36:58;;;;;;;;;;;;;;;12.06;23.72;102498.13;5030513;28;19931;-66
2022/03/02 11:39:25;;;;;;;;;;;;;;;12.52;24.23;102499.25;5030503;28;19967;-66
2022/03/02 11:41:51;;;;;;;;;;;;;;;12.72;23.86;102491.56;5030382;28;20415;-66
2022/03/02 11:44:29;;;;;;;;;;;;;;;11.79;24.87;102488.75;5027722;28;20356;-66
2022/03/02 11:46:55;;;;;;;;;;;;;;;12.72;24.16;102489.66;5026042;28;19917;-68
2022/03/02 11:49:20;;;;;;;;;;;;;;;12.08;25.31;102479.69;5030218;28;19922;-67
2022/03/02 11:52:01;;;;;;;;;;;;;;;12.35;24.53;102480.06;5026992;28;19943;-66
2022/03/02 11:54:37;;;;;;;;;;;;;;;12.83;24.97;102466.22;5030632;28;20395;-66
2022/03/02 11:57:03;;;;;;;;;;;;;;;12.88;23.73;102471.75;5017529;28;19932;-68
2022/03/02 11:59:28;;;;;;;;;;;;;;;12.65;23.84;102466.34;5031944;28;19913;-67
2022/03/02 12:01:54;;;;;;;;;;;;;;;12.96;23.84;102466.75;5050325;28;19951;-67
2022/03/02 12:04:19;;;;;;;;;;;;;;;12.14;24.50;102456.97;5049770;28;19988;-66
2022/03/02 12:06:51;;;;;;;;;;;;;;;12.93;23.57;102463.66;5042274;28;19924;-69
2022/03/02 12:09:22;;;;;;;;;;;;;;;13.91;22.59;102456.84;5049709;28;19995;-67
2022/03/02 12:11:48;;;;;;;;;;;;;;;13.70;22.70;102457.56;5049517;28;20014;-67
2022/03/02 12:14:15;;;;;;;;;;;;;;;14.28;22.83;102451.75;5049615;28;19925;-67
2022/03/02 12:16:48;;;;;;;;;;;;;;;14.26;21.77;102462.09;5049066;28;19932;-68
2022/03/02 12:19:20;;;;;;;;;;;;;;;14.06;21.97;102451.66;5049611;28;19970;-65
2022/03/02 12:21:46;;;;;;;;;;;;;;;13.43;22.31;102456.53;5049203;28;19952;-66
2022/03/02 12:24:12;;;;;;;;;;;;;;;12.91;23.01;102452.19;5048395;28;19980;-66
2022/03/02 12:26:39;;;;;;;;;;;;;;;13.32;22.62;102443.75;5049510;28;19924;-68
2022/03/02 12:29:08;;;;;;;;;;;;;;;13.36;23.10;102446.88;5050153;28;19913;-66
2022/03/02 12:31:33;;;;;;;;;;;;;;;14.38;22.45;102437.41;5049904;28;19925;-67
2022/03/02 12:34:00;;;;;;;;;;;;;;;14.62;22.29;102430.63;5049535;28;20242;-66
2022/03/02 12:36:25;;;;;;;;;;;;;;;14.48;20.60;102430.16;5049316;28;19921;-66
2022/03/02 12:38:51;;;;;;;;;;;;;;;14.78;21.55;102427.84;5049637;28;19924;-67
2022/03/02 12:41:16;;;;;;;;;;;;;;;13.99;22.27;102425.56;5049395;28;20585;-67
2022/03/02 12:43:41;;;;;;;;;;;;;;;14.96;21.14;102419.31;5049527;28;20320;-66